createdAt,value
2017-08-21T16:26:45.956Z,19.70
2017-08-21T16:31:32.607Z,19.60
2017-08-21T16:36:19.345Z,19.40
2017-08-21T16:41:05.990Z,19.20
2017-08-21T16:45:52.674Z,19.30
2017-08-21T16:50:39.323Z,19.20
2017-08-21T16:55:25.958Z,19.20
2017-08-21T17:00:12.585Z,19.10
2017-08-21T17:04:59.303Z,19.10
2017-08-21T17:09:46.510Z,18.90
2017-08-21T17:14:33.147Z,18.70
2017-08-21T17:19:20.664Z,18.60
2017-08-21T17:24:07.371Z,18.50
2017-08-21T17:28:54.042Z,18.30
2017-08-21T17:33:40.781Z,18.10
2017-08-21T17:38:27.833Z,17.90
2017-08-21T17:43:14.534Z,17.80
2017-08-21T17:48:01.226Z,17.50
2017-08-21T17:52:48.049Z,17.20
2017-08-21T17:57:34.712Z,16.80
2017-08-21T18:02:21.459Z,16.60
2017-08-21T18:07:08.122Z,16.40
2017-08-21T18:11:54.774Z,16.10
2017-08-21T18:16:41.447Z,15.90
2017-08-21T18:21:28.342Z,15.80
2017-08-21T18:26:15.074Z,15.70
2017-08-21T18:31:01.770Z,15.50
2017-08-21T18:35:48.534Z,15.30
2017-08-21T18:40:35.530Z,15.20
2017-08-21T18:45:22.230Z,15.00
2017-08-21T18:50:08.948Z,14.80
2017-08-21T18:54:55.765Z,14.50
2017-08-21T18:59:42.447Z,14.40
2017-08-21T19:04:29.136Z,14.30
2017-08-21T19:09:16.091Z,14.30
2017-08-21T19:14:02.781Z,14.40
2017-08-21T19:18:49.475Z,14.30
2017-08-21T19:23:36.167Z,14.10
2017-08-21T19:28:22.861Z,13.80
2017-08-21T19:33:09.900Z,13.70
2017-08-21T19:37:56.570Z,13.60
2017-08-21T19:42:43.479Z,13.60
2017-08-21T19:47:30.205Z,13.60
2017-08-21T19:52:16.967Z,13.40
2017-08-21T19:57:03.687Z,13.30
2017-08-21T20:01:50.399Z,13.20
2017-08-21T20:06:37.354Z,13.10
2017-08-21T20:11:24.044Z,13.10
2017-08-21T20:16:10.752Z,13.00
2017-08-21T20:20:57.737Z,13.00
2017-08-21T20:25:44.647Z,12.90
2017-08-21T20:30:31.446Z,12.70
2017-08-21T20:35:18.112Z,12.70
2017-08-21T20:40:05.198Z,12.70
2017-08-21T20:44:52.059Z,12.60
2017-08-21T20:49:38.849Z,12.50
2017-08-21T20:54:25.486Z,12.40
2017-08-21T20:59:12.396Z,12.30
2017-08-21T21:03:59.042Z,12.30
2017-08-21T21:08:45.656Z,12.40
2017-08-21T21:13:32.461Z,12.20
2017-08-21T21:18:19.152Z,12.20
2017-08-21T21:23:06.335Z,12.20
2017-08-21T21:27:53.262Z,12.30
2017-08-21T21:32:39.936Z,12.20
2017-08-21T21:37:26.568Z,12.00
2017-08-21T21:42:13.228Z,12.00
2017-08-21T21:47:00.242Z,11.90
2017-08-21T21:51:47.070Z,11.80
2017-08-21T21:56:33.749Z,11.90
2017-08-21T22:01:20.829Z,11.80
2017-08-21T22:06:07.451Z,11.60
2017-08-21T22:10:54.073Z,11.50
2017-08-21T22:15:40.975Z,11.50
2017-08-21T22:20:27.640Z,11.50
2017-08-21T22:25:14.273Z,11.40
2017-08-21T22:30:00.912Z,11.40
2017-08-21T22:34:47.565Z,11.20
2017-08-21T22:39:34.281Z,11.10
2017-08-21T22:44:20.934Z,11.20
2017-08-21T22:49:07.588Z,11.10
2017-08-21T22:53:54.242Z,11.10
2017-08-21T22:58:40.897Z,11.10
2017-08-21T23:03:27.616Z,11.20
2017-08-21T23:08:14.325Z,11.20
2017-08-21T23:13:01.265Z,11.10
2017-08-21T23:17:47.913Z,11.00
2017-08-21T23:22:35.189Z,10.80
2017-08-21T23:27:21.837Z,10.80
2017-08-21T23:32:08.465Z,10.80
2017-08-21T23:36:55.085Z,10.70
2017-08-21T23:41:42.454Z,10.60
2017-08-21T23:46:29.223Z,10.60
2017-08-21T23:51:16.263Z,10.70
2017-08-21T23:56:02.967Z,10.70
